sensor_id;sensor_type;location;lat;lon;timestamp;P1;durP1;ratioP1;P2;durP2;ratioP2
75025;SDS011;63591;50.080;8.286;2022-12-10T00:00:13;7.57;;;4.33;;
75025;SDS011;63591;50.080;8.286;2022-12-10T00:02:39;7.38;;;4.43;;
75025;SDS011;63591;50.080;8.286;2022-12-10T00:05:04;7.90;;;4.67;;
75025;SDS011;63591;50.080;8.286;2022-12-10T00:07:30;8.13;;;4.53;;
75025;SDS011;63591;50.080;8.286;2022-12-10T00:09:55;7.43;;;4.27;;
75025;SDS011;63591;50.080;8.286;2022-12-10T00:12:20;7.72;;;4.00;;
75025;SDS011;63591;50.080;8.286;2022-12-10T00:14:46;7.43;;;4.13;;
75025;SDS011;63591;50.080;8.286;2022-12-10T00:17:11;8.13;;;4.60;;
75025;SDS011;63591;50.080;8.286;2022-12-10T00:19:36;7.43;;;4.40;;
75025;SDS011;63591;50.080;8.286;2022-12-10T00:22:01;7.80;;;4.40;;
75025;SDS011;63591;50.080;8.286;2022-12-10T00:24:27;7.63;;;3.93;;
75025;SDS011;63591;50.080;8.286;2022-12-10T00:26:52;7.40;;;4.07;;
75025;SDS011;63591;50.080;8.286;2022-12-10T00:29:17;7.57;;;4.33;;
75025;SDS011;63591;50.080;8.286;2022-12-10T00:31:43;8.33;;;4.00;;
75025;SDS011;63591;50.080;8.286;2022-12-10T00:34:09;6.97;;;4.10;;
75025;SDS011;63591;50.080;8.286;2022-12-10T00:36:37;7.13;;;4.00;;
75025;SDS011;63591;50.080;8.286;2022-12-10T00:39:07;7.32;;;3.47;;
75025;SDS011;63591;50.080;8.286;2022-12-10T00:41:33;6.57;;;4.00;;
75025;SDS011;63591;50.080;8.286;2022-12-10T00:43:59;6.17;;;3.53;;
75025;SDS011;63591;50.080;8.286;2022-12-10T00:46:24;6.43;;;4.00;;
75025;SDS011;63591;50.080;8.286;2022-12-10T00:48:50;6.43;;;3.80;;
75025;SDS011;63591;50.080;8.286;2022-12-10T00:51:17;7.17;;;3.90;;
75025;SDS011;63591;50.080;8.286;2022-12-10T00:53:44;6.18;;;3.67;;
75025;SDS011;63591;50.080;8.286;2022-12-10T00:56:11;6.75;;;3.83;;
75025;SDS011;63591;50.080;8.286;2022-12-10T00:58:39;6.93;;;4.07;;
75025;SDS011;63591;50.080;8.286;2022-12-10T01:01:09;6.90;;;3.72;;
75025;SDS011;63591;50.080;8.286;2022-12-10T01:03:43;6.95;;;3.90;;
75025;SDS011;63591;50.080;8.286;2022-12-10T01:06:17;6.38;;;3.78;;
75025;SDS011;63591;50.080;8.286;2022-12-10T01:09:09;7.28;;;4.10;;
75025;SDS011;63591;50.080;8.286;2022-12-10T01:11:38;7.07;;;3.90;;
75025;SDS011;63591;50.080;8.286;2022-12-10T01:14:06;7.03;;;3.95;;
75025;SDS011;63591;50.080;8.286;2022-12-10T01:16:33;6.88;;;4.00;;
75025;SDS011;63591;50.080;8.286;2022-12-10T01:18:58;6.93;;;3.80;;
75025;SDS011;63591;50.080;8.286;2022-12-10T01:21:25;7.18;;;3.80;;
75025;SDS011;63591;50.080;8.286;2022-12-10T01:23:51;7.35;;;3.78;;
75025;SDS011;63591;50.080;8.286;2022-12-10T01:26:19;6.40;;;4.00;;
75025;SDS011;63591;50.080;8.286;2022-12-10T01:28:46;7.05;;;4.10;;
75025;SDS011;63591;50.080;8.286;2022-12-10T01:31:13;6.57;;;3.90;;
75025;SDS011;63591;50.080;8.286;2022-12-10T01:33:44;6.15;;;3.45;;
75025;SDS011;63591;50.080;8.286;2022-12-10T01:36:11;6.40;;;3.55;;
75025;SDS011;63591;50.080;8.286;2022-12-10T01:38:39;6.13;;;3.45;;
75025;SDS011;63591;50.080;8.286;2022-12-10T01:41:05;6.95;;;4.00;;
75025;SDS011;63591;50.080;8.286;2022-12-10T01:43:48;6.40;;;3.85;;
75025;SDS011;63591;50.080;8.286;2022-12-10T01:46:23;6.73;;;3.50;;
75025;SDS011;63591;50.080;8.286;2022-12-10T01:48:50;6.65;;;3.65;;
75025;SDS011;63591;50.080;8.286;2022-12-10T01:51:15;6.63;;;3.72;;
75025;SDS011;63591;50.080;8.286;2022-12-10T01:53:41;7.22;;;3.95;;
75025;SDS011;63591;50.080;8.286;2022-12-10T01:56:09;6.88;;;3.90;;
75025;SDS011;63591;50.080;8.286;2022-12-10T01:58:35;6.67;;;3.80;;
75025;SDS011;63591;50.080;8.286;2022-12-10T02:01:12;6.15;;;3.70;;
75025;SDS011;63591;50.080;8.286;2022-12-10T02:11:34;5.70;;;3.30;;
75025;SDS011;63591;50.080;8.286;2022-12-10T02:14:12;6.90;;;3.88;;
75025;SDS011;63591;50.080;8.286;2022-12-10T02:16:46;6.63;;;3.83;;
75025;SDS011;63591;50.080;8.286;2022-12-10T02:19:26;7.75;;;3.88;;
75025;SDS011;63591;50.080;8.286;2022-12-10T02:21:58;7.00;;;3.92;;
75025;SDS011;63591;50.080;8.286;2022-12-10T02:24:27;7.03;;;3.73;;
75025;SDS011;63591;50.080;8.286;2022-12-10T02:29:36;6.40;;;3.60;;
75025;SDS011;63591;50.080;8.286;2022-12-10T02:32:06;6.57;;;3.75;;
75025;SDS011;63591;50.080;8.286;2022-12-10T02:34:37;7.55;;;3.80;;
75025;SDS011;63591;50.080;8.286;2022-12-10T02:37:08;6.97;;;3.90;;
75025;SDS011;63591;50.080;8.286;2022-12-10T02:39:40;6.47;;;3.83;;
75025;SDS011;63591;50.080;8.286;2022-12-10T02:42:11;7.05;;;3.83;;
75025;SDS011;63591;50.080;8.286;2022-12-10T02:44:40;6.55;;;3.60;;
75025;SDS011;63591;50.080;8.286;2022-12-10T02:47:07;6.40;;;3.72;;
75025;SDS011;63591;50.080;8.286;2022-12-10T02:49:34;7.73;;;3.97;;
75025;SDS011;63591;50.080;8.286;2022-12-10T02:52:08;7.38;;;4.00;;
75025;SDS011;63591;50.080;8.286;2022-12-10T03:03:04;6.90;;;3.67;;
75025;SDS011;63591;50.080;8.286;2022-12-10T03:13:21;6.25;;;3.70;;
75025;SDS011;63591;50.080;8.286;2022-12-10T03:15:52;7.30;;;3.80;;
75025;SDS011;63591;50.080;8.286;2022-12-10T03:18:19;6.95;;;3.67;;
75025;SDS011;63591;50.080;8.286;2022-12-10T03:20:48;6.93;;;4.00;;
75025;SDS011;63591;50.080;8.286;2022-12-10T03:23:16;7.57;;;3.70;;
75025;SDS011;63591;50.080;8.286;2022-12-10T03:25:43;7.50;;;3.95;;
75025;SDS011;63591;50.080;8.286;2022-12-10T03:28:11;6.93;;;4.00;;
75025;SDS011;63591;50.080;8.286;2022-12-10T03:30:38;5.97;;;3.38;;
75025;SDS011;63591;50.080;8.286;2022-12-10T03:33:05;7.18;;;3.67;;
75025;SDS011;63591;50.080;8.286;2022-12-10T03:35:31;6.72;;;3.95;;
75025;SDS011;63591;50.080;8.286;2022-12-10T03:37:57;6.85;;;3.78;;
75025;SDS011;63591;50.080;8.286;2022-12-10T03:40:23;6.78;;;3.42;;
75025;SDS011;63591;50.080;8.286;2022-12-10T03:42:49;6.03;;;3.58;;
75025;SDS011;63591;50.080;8.286;2022-12-10T03:45:15;6.70;;;3.70;;
75025;SDS011;63591;50.080;8.286;2022-12-10T03:47:40;6.50;;;3.50;;
75025;SDS011;63591;50.080;8.286;2022-12-10T03:50:06;7.00;;;3.60;;
75025;SDS011;63591;50.080;8.286;2022-12-10T03:52:32;6.22;;;3.70;;
75025;SDS011;63591;50.080;8.286;2022-12-10T03:54:57;7.07;;;3.73;;
75025;SDS011;63591;50.080;8.286;2022-12-10T03:57:23;6.40;;;3.67;;
75025;SDS011;63591;50.080;8.286;2022-12-10T03:59:48;6.97;;;3.83;;
75025;SDS011;63591;50.080;8.286;2022-12-10T04:02:14;6.43;;;3.47;;
75025;SDS011;63591;50.080;8.286;2022-12-10T04:04:39;6.15;;;3.30;;
75025;SDS011;63591;50.080;8.286;2022-12-10T04:07:04;6.97;;;3.53;;
75025;SDS011;63591;50.080;8.286;2022-12-10T04:09:30;6.73;;;3.73;;
75025;SDS011;63591;50.080;8.286;2022-12-10T04:11:56;6.83;;;3.30;;
75025;SDS011;63591;50.080;8.286;2022-12-10T04:14:22;7.13;;;3.75;;
75025;SDS011;63591;50.080;8.286;2022-12-10T04:17:06;7.18;;;3.72;;
75025;SDS011;63591;50.080;8.286;2022-12-10T04:19:32;7.78;;;4.35;;
75025;SDS011;63591;50.080;8.286;2022-12-10T04:21:57;6.83;;;3.80;;
75025;SDS011;63591;50.080;8.286;2022-12-10T04:24:41;5.97;;;3.50;;
75025;SDS011;63591;50.080;8.286;2022-12-10T04:27:29;6.72;;;3.75;;
75025;SDS011;63591;50.080;8.286;2022-12-10T04:29:56;7.97;;;4.15;;
75025;SDS011;63591;50.080;8.286;2022-12-10T04:32:23;6.78;;;3.88;;
75025;SDS011;63591;50.080;8.286;2022-12-10T04:34:50;6.53;;;3.70;;
75025;SDS011;63591;50.080;8.286;2022-12-10T04:37:16;7.80;;;3.90;;
75025;SDS011;63591;50.080;8.286;2022-12-10T04:39:42;6.75;;;3.92;;
75025;SDS011;63591;50.080;8.286;2022-12-10T04:42:08;6.60;;;3.90;;
75025;SDS011;63591;50.080;8.286;2022-12-10T04:44:34;6.20;;;3.63;;
75025;SDS011;63591;50.080;8.286;2022-12-10T04:47:00;8.05;;;3.85;;
75025;SDS011;63591;50.080;8.286;2022-12-10T04:49:25;6.97;;;4.00;;
75025;SDS011;63591;50.080;8.286;2022-12-10T04:51:51;7.82;;;3.90;;
75025;SDS011;63591;50.080;8.286;2022-12-10T04:54:17;7.55;;;4.13;;
75025;SDS011;63591;50.080;8.286;2022-12-10T04:56:44;7.13;;;4.10;;
75025;SDS011;63591;50.080;8.286;2022-12-10T04:59:09;7.45;;;3.97;;
75025;SDS011;63591;50.080;8.286;2022-12-10T05:01:35;6.57;;;3.78;;
75025;SDS011;63591;50.080;8.286;2022-12-10T05:04:02;6.53;;;3.73;;
75025;SDS011;63591;50.080;8.286;2022-12-10T05:06:31;7.07;;;3.97;;
75025;SDS011;63591;50.080;8.286;2022-12-10T05:08:56;6.60;;;3.55;;
75025;SDS011;63591;50.080;8.286;2022-12-10T05:11:23;6.57;;;3.87;;
75025;SDS011;63591;50.080;8.286;2022-12-10T05:13:50;6.53;;;3.78;;
75025;SDS011;63591;50.080;8.286;2022-12-10T05:16:18;6.65;;;4.05;;
75025;SDS011;63591;50.080;8.286;2022-12-10T05:18:45;6.70;;;3.60;;
75025;SDS011;63591;50.080;8.286;2022-12-10T05:21:11;6.85;;;4.05;;
75025;SDS011;63591;50.080;8.286;2022-12-10T05:23:39;6.93;;;3.72;;
75025;SDS011;63591;50.080;8.286;2022-12-10T05:28:50;6.22;;;3.50;;
75025;SDS011;63591;50.080;8.286;2022-12-10T05:31:21;6.68;;;3.90;;
75025;SDS011;63591;50.080;8.286;2022-12-10T05:33:48;6.47;;;3.80;;
75025;SDS011;63591;50.080;8.286;2022-12-10T05:36:15;5.93;;;3.35;;
75025;SDS011;63591;50.080;8.286;2022-12-10T05:38:42;6.13;;;3.53;;
75025;SDS011;63591;50.080;8.286;2022-12-10T05:41:09;8.00;;;3.70;;
75025;SDS011;63591;50.080;8.286;2022-12-10T05:43:37;6.78;;;3.70;;
75025;SDS011;63591;50.080;8.286;2022-12-10T05:46:03;6.00;;;3.33;;
75025;SDS011;63591;50.080;8.286;2022-12-10T05:48:31;5.95;;;3.70;;
75025;SDS011;63591;50.080;8.286;2022-12-10T05:50:57;6.33;;;3.60;;
75025;SDS011;63591;50.080;8.286;2022-12-10T05:53:23;6.18;;;3.42;;
75025;SDS011;63591;50.080;8.286;2022-12-10T05:55:48;6.57;;;3.80;;
75025;SDS011;63591;50.080;8.286;2022-12-10T05:58:14;7.57;;;3.87;;
75025;SDS011;63591;50.080;8.286;2022-12-10T06:00:39;6.53;;;3.87;;
75025;SDS011;63591;50.080;8.286;2022-12-10T06:03:05;6.47;;;3.63;;
75025;SDS011;63591;50.080;8.286;2022-12-10T06:05:35;6.80;;;3.70;;
75025;SDS011;63591;50.080;8.286;2022-12-10T06:08:05;7.30;;;4.10;;
75025;SDS011;63591;50.080;8.286;2022-12-10T06:10:33;6.53;;;3.80;;
75025;SDS011;63591;50.080;8.286;2022-12-10T06:12:59;7.45;;;4.28;;
75025;SDS011;63591;50.080;8.286;2022-12-10T06:15:24;6.18;;;3.70;;
75025;SDS011;63591;50.080;8.286;2022-12-10T06:17:49;6.87;;;3.90;;
75025;SDS011;63591;50.080;8.286;2022-12-10T06:20:15;6.47;;;3.77;;
75025;SDS011;63591;50.080;8.286;2022-12-10T06:22:40;7.03;;;3.80;;
75025;SDS011;63591;50.080;8.286;2022-12-10T06:25:05;6.47;;;3.90;;
75025;SDS011;63591;50.080;8.286;2022-12-10T06:27:31;6.35;;;3.78;;
75025;SDS011;63591;50.080;8.286;2022-12-10T06:29:56;7.07;;;4.20;;
75025;SDS011;63591;50.080;8.286;2022-12-10T06:32:22;6.23;;;3.50;;
75025;SDS011;63591;50.080;8.286;2022-12-10T06:34:47;7.10;;;3.90;;
75025;SDS011;63591;50.080;8.286;2022-12-10T06:37:13;6.77;;;4.07;;
75025;SDS011;63591;50.080;8.286;2022-12-10T06:39:38;7.05;;;4.10;;
75025;SDS011;63591;50.080;8.286;2022-12-10T06:42:03;6.07;;;3.60;;
75025;SDS011;63591;50.080;8.286;2022-12-10T06:44:30;7.00;;;3.65;;
75025;SDS011;63591;50.080;8.286;2022-12-10T06:46:55;7.05;;;3.90;;
75025;SDS011;63591;50.080;8.286;2022-12-10T06:49:21;6.73;;;3.90;;
75025;SDS011;63591;50.080;8.286;2022-12-10T06:51:47;6.60;;;4.03;;
75025;SDS011;63591;50.080;8.286;2022-12-10T06:54:12;6.78;;;3.72;;
75025;SDS011;63591;50.080;8.286;2022-12-10T06:56:37;6.60;;;3.87;;
75025;SDS011;63591;50.080;8.286;2022-12-10T06:59:06;6.97;;;4.20;;
75025;SDS011;63591;50.080;8.286;2022-12-10T07:01:32;6.72;;;3.90;;
75025;SDS011;63591;50.080;8.286;2022-12-10T07:03:57;7.03;;;3.70;;
75025;SDS011;63591;50.080;8.286;2022-12-10T07:06:23;6.90;;;3.83;;
75025;SDS011;63591;50.080;8.286;2022-12-10T07:08:50;6.63;;;3.90;;
75025;SDS011;63591;50.080;8.286;2022-12-10T07:11:18;6.53;;;3.85;;
75025;SDS011;63591;50.080;8.286;2022-12-10T07:13:45;6.13;;;3.63;;
75025;SDS011;63591;50.080;8.286;2022-12-10T07:16:21;6.40;;;3.63;;
75025;SDS011;63591;50.080;8.286;2022-12-10T07:18:53;6.22;;;3.70;;
75025;SDS011;63591;50.080;8.286;2022-12-10T07:21:21;6.93;;;3.65;;
75025;SDS011;63591;50.080;8.286;2022-12-10T07:23:51;7.10;;;3.78;;
75025;SDS011;63591;50.080;8.286;2022-12-10T07:26:22;5.90;;;3.63;;
75025;SDS011;63591;50.080;8.286;2022-12-10T07:28:49;7.57;;;3.95;;
75025;SDS011;63591;50.080;8.286;2022-12-10T07:31:14;6.47;;;3.80;;
75025;SDS011;63591;50.080;8.286;2022-12-10T07:33:39;5.60;;;3.40;;
75025;SDS011;63591;50.080;8.286;2022-12-10T07:36:09;6.55;;;4.00;;
75025;SDS011;63591;50.080;8.286;2022-12-10T07:38:36;6.43;;;3.67;;
75025;SDS011;63591;50.080;8.286;2022-12-10T07:41:03;7.00;;;4.20;;
75025;SDS011;63591;50.080;8.286;2022-12-10T07:43:34;7.53;;;4.20;;
75025;SDS011;63591;50.080;8.286;2022-12-10T07:46:08;7.00;;;4.07;;
75025;SDS011;63591;50.080;8.286;2022-12-10T07:48:36;6.45;;;4.00;;
75025;SDS011;63591;50.080;8.286;2022-12-10T07:51:03;7.30;;;4.20;;
75025;SDS011;63591;50.080;8.286;2022-12-10T07:53:29;6.57;;;3.70;;
75025;SDS011;63591;50.080;8.286;2022-12-10T07:55:54;7.23;;;3.90;;
75025;SDS011;63591;50.080;8.286;2022-12-10T07:58:19;6.30;;;3.80;;
75025;SDS011;63591;50.080;8.286;2022-12-10T08:00:45;7.33;;;3.60;;
75025;SDS011;63591;50.080;8.286;2022-12-10T08:03:10;6.03;;;3.47;;
75025;SDS011;63591;50.080;8.286;2022-12-10T08:05:36;6.80;;;3.87;;
75025;SDS011;63591;50.080;8.286;2022-12-10T08:08:01;6.57;;;3.53;;
75025;SDS011;63591;50.080;8.286;2022-12-10T08:10:27;6.88;;;3.58;;
75025;SDS011;63591;50.080;8.286;2022-12-10T08:12:52;5.60;;;3.27;;
75025;SDS011;63591;50.080;8.286;2022-12-10T08:15:17;6.27;;;3.53;;
75025;SDS011;63591;50.080;8.286;2022-12-10T08:17:42;6.30;;;3.70;;
75025;SDS011;63591;50.080;8.286;2022-12-10T08:20:08;5.50;;;3.13;;
75025;SDS011;63591;50.080;8.286;2022-12-10T08:22:34;5.80;;;3.13;;
75025;SDS011;63591;50.080;8.286;2022-12-10T08:25:00;5.90;;;3.60;;
75025;SDS011;63591;50.080;8.286;2022-12-10T08:27:26;6.05;;;3.30;;
75025;SDS011;63591;50.080;8.286;2022-12-10T08:29:51;6.40;;;3.37;;
75025;SDS011;63591;50.080;8.286;2022-12-10T08:32:16;5.80;;;3.30;;
75025;SDS011;63591;50.080;8.286;2022-12-10T08:34:41;5.80;;;3.10;;
75025;SDS011;63591;50.080;8.286;2022-12-10T08:37:07;6.87;;;3.50;;
75025;SDS011;63591;50.080;8.286;2022-12-10T08:39:32;5.83;;;3.43;;
75025;SDS011;63591;50.080;8.286;2022-12-10T08:41:58;5.82;;;3.30;;
75025;SDS011;63591;50.080;8.286;2022-12-10T08:44:23;5.60;;;3.30;;
75025;SDS011;63591;50.080;8.286;2022-12-10T08:46:49;6.13;;;3.25;;
75025;SDS011;63591;50.080;8.286;2022-12-10T08:49:14;6.17;;;3.43;;
75025;SDS011;63591;50.080;8.286;2022-12-10T08:51:39;6.50;;;3.30;;
75025;SDS011;63591;50.080;8.286;2022-12-10T08:54:05;6.13;;;3.37;;
75025;SDS011;63591;50.080;8.286;2022-12-10T08:56:30;6.10;;;3.17;;
75025;SDS011;63591;50.080;8.286;2022-12-10T08:58:56;6.03;;;3.17;;
75025;SDS011;63591;50.080;8.286;2022-12-10T09:01:21;6.68;;;3.35;;
75025;SDS011;63591;50.080;8.286;2022-12-10T09:03:47;6.13;;;3.37;;
75025;SDS011;63591;50.080;8.286;2022-12-10T09:06:13;7.27;;;3.70;;
75025;SDS011;63591;50.080;8.286;2022-12-10T09:08:41;6.03;;;3.30;;
75025;SDS011;63591;50.080;8.286;2022-12-10T09:11:09;6.53;;;3.50;;
75025;SDS011;63591;50.080;8.286;2022-12-10T09:13:36;6.18;;;3.80;;
75025;SDS011;63591;50.080;8.286;2022-12-10T09:16:02;6.53;;;3.38;;
75025;SDS011;63591;50.080;8.286;2022-12-10T09:18:28;6.27;;;3.47;;
75025;SDS011;63591;50.080;8.286;2022-12-10T09:20:53;5.87;;;3.20;;
75025;SDS011;63591;50.080;8.286;2022-12-10T09:23:18;6.20;;;3.10;;
75025;SDS011;63591;50.080;8.286;2022-12-10T09:25:44;6.07;;;3.20;;
75025;SDS011;63591;50.080;8.286;2022-12-10T09:28:09;8.33;;;3.57;;
75025;SDS011;63591;50.080;8.286;2022-12-10T09:30:34;6.40;;;3.30;;
75025;SDS011;63591;50.080;8.286;2022-12-10T09:33:00;6.07;;;3.20;;
75025;SDS011;63591;50.080;8.286;2022-12-10T09:35:25;6.37;;;3.30;;
75025;SDS011;63591;50.080;8.286;2022-12-10T09:37:51;6.68;;;3.53;;
75025;SDS011;63591;50.080;8.286;2022-12-10T09:40:16;6.27;;;3.70;;
75025;SDS011;63591;50.080;8.286;2022-12-10T09:42:54;6.30;;;3.50;;
75025;SDS011;63591;50.080;8.286;2022-12-10T09:48:25;7.53;;;4.03;;
75025;SDS011;63591;50.080;8.286;2022-12-10T09:51:09;6.47;;;3.70;;
75025;SDS011;63591;50.080;8.286;2022-12-10T09:53:38;7.18;;;3.90;;
75025;SDS011;63591;50.080;8.286;2022-12-10T09:56:05;7.53;;;3.90;;
75025;SDS011;63591;50.080;8.286;2022-12-10T09:58:36;9.70;;;4.30;;
75025;SDS011;63591;50.080;8.286;2022-12-10T10:01:03;6.50;;;3.40;;
75025;SDS011;63591;50.080;8.286;2022-12-10T10:03:31;8.40;;;3.40;;
75025;SDS011;63591;50.080;8.286;2022-12-10T10:06:01;7.53;;;3.70;;
75025;SDS011;63591;50.080;8.286;2022-12-10T10:08:29;7.20;;;3.33;;
75025;SDS011;63591;50.080;8.286;2022-12-10T10:10:56;7.88;;;3.65;;
75025;SDS011;63591;50.080;8.286;2022-12-10T10:13:42;6.72;;;3.65;;
75025;SDS011;63591;50.080;8.286;2022-12-10T10:19:03;8.82;;;4.40;;
75025;SDS011;63591;50.080;8.286;2022-12-10T10:21:41;8.55;;;4.57;;
75025;SDS011;63591;50.080;8.286;2022-12-10T10:24:12;7.80;;;3.92;;
75025;SDS011;63591;50.080;8.286;2022-12-10T10:26:40;8.02;;;3.88;;
75025;SDS011;63591;50.080;8.286;2022-12-10T10:29:06;7.57;;;3.90;;
75025;SDS011;63591;50.080;8.286;2022-12-10T10:31:35;7.47;;;3.80;;
75025;SDS011;63591;50.080;8.286;2022-12-10T10:34:05;8.80;;;4.30;;
75025;SDS011;63591;50.080;8.286;2022-12-10T10:36:37;9.32;;;4.30;;
75025;SDS011;63591;50.080;8.286;2022-12-10T10:39:36;7.57;;;3.92;;
75025;SDS011;63591;50.080;8.286;2022-12-10T10:41:57;7.10;;;3.80;;
75025;SDS011;63591;50.080;8.286;2022-12-10T10:44:28;9.43;;;4.25;;
75025;SDS011;63591;50.080;8.286;2022-12-10T10:47:00;8.32;;;3.88;;
75025;SDS011;63591;50.080;8.286;2022-12-10T10:49:26;7.07;;;3.43;;
75025;SDS011;63591;50.080;8.286;2022-12-10T10:51:59;6.95;;;3.72;;
75025;SDS011;63591;50.080;8.286;2022-12-10T10:57:03;7.22;;;3.85;;
75025;SDS011;63591;50.080;8.286;2022-12-10T10:59:51;7.07;;;3.77;;
75025;SDS011;63591;50.080;8.286;2022-12-10T11:02:20;6.20;;;3.30;;
75025;SDS011;63591;50.080;8.286;2022-12-10T11:04:54;10.00;;;3.90;;
75025;SDS011;63591;50.080;8.286;2022-12-10T11:09:57;6.78;;;3.53;;
75025;SDS011;63591;50.080;8.286;2022-12-10T11:14:53;6.38;;;3.53;;
75025;SDS011;63591;50.080;8.286;2022-12-10T11:17:20;6.63;;;3.50;;
75025;SDS011;63591;50.080;8.286;2022-12-10T11:19:55;6.35;;;3.40;;
75025;SDS011;63591;50.080;8.286;2022-12-10T11:22:26;6.40;;;3.30;;
75025;SDS011;63591;50.080;8.286;2022-12-10T11:24:55;6.82;;;3.58;;
75025;SDS011;63591;50.080;8.286;2022-12-10T11:30:09;6.43;;;3.45;;
75025;SDS011;63591;50.080;8.286;2022-12-10T11:38:03;6.30;;;3.13;;
75025;SDS011;63591;50.080;8.286;2022-12-10T11:43:22;5.85;;;2.92;;
75025;SDS011;63591;50.080;8.286;2022-12-10T11:51:19;5.70;;;3.05;;
75025;SDS011;63591;50.080;8.286;2022-12-10T11:54:18;6.00;;;3.15;;
75025;SDS011;63591;50.080;8.286;2022-12-10T12:19:29;5.53;;;2.92;;
75025;SDS011;63591;50.080;8.286;2022-12-10T12:22:02;6.07;;;3.30;;
75025;SDS011;63591;50.080;8.286;2022-12-10T12:24:37;5.55;;;2.97;;
75025;SDS011;63591;50.080;8.286;2022-12-10T12:27:11;6.70;;;3.30;;
75025;SDS011;63591;50.080;8.286;2022-12-10T12:32:21;6.32;;;3.58;;
75025;SDS011;63591;50.080;8.286;2022-12-10T12:34:56;6.80;;;3.88;;
75025;SDS011;63591;50.080;8.286;2022-12-10T12:37:29;6.78;;;3.60;;
75025;SDS011;63591;50.080;8.286;2022-12-10T12:42:40;7.35;;;4.10;;
75025;SDS011;63591;50.080;8.286;2022-12-10T12:45:16;6.97;;;3.90;;
75025;SDS011;63591;50.080;8.286;2022-12-10T12:47:49;6.45;;;3.75;;
75025;SDS011;63591;50.080;8.286;2022-12-10T12:50:30;7.70;;;4.10;;
75025;SDS011;63591;50.080;8.286;2022-12-10T12:53:17;5.85;;;3.47;;
75025;SDS011;63591;50.080;8.286;2022-12-10T12:55:53;6.82;;;3.95;;
75025;SDS011;63591;50.080;8.286;2022-12-10T13:01:27;7.28;;;3.97;;
75025;SDS011;63591;50.080;8.286;2022-12-10T13:04:03;7.30;;;4.20;;
75025;SDS011;63591;50.080;8.286;2022-12-10T13:06:31;6.88;;;3.67;;
75025;SDS011;63591;50.080;8.286;2022-12-10T13:11:36;6.38;;;3.60;;
75025;SDS011;63591;50.080;8.286;2022-12-10T13:16:34;6.80;;;3.77;;
75025;SDS011;63591;50.080;8.286;2022-12-10T13:22:09;6.07;;;3.47;;
75025;SDS011;63591;50.080;8.286;2022-12-10T13:27:28;6.88;;;3.53;;
75025;SDS011;63591;50.080;8.286;2022-12-10T13:30:00;6.25;;;3.53;;
75025;SDS011;63591;50.080;8.286;2022-12-10T13:37:35;6.05;;;3.10;;
75025;SDS011;63591;50.080;8.286;2022-12-10T13:42:52;6.70;;;3.60;;
75025;SDS011;63591;50.080;8.286;2022-12-10T13:45:41;5.68;;;3.30;;
75025;SDS011;63591;50.080;8.286;2022-12-10T13:48:22;7.00;;;3.60;;
75025;SDS011;63591;50.080;8.286;2022-12-10T13:50:48;5.80;;;3.47;;
75025;SDS011;63591;50.080;8.286;2022-12-10T13:54:10;6.10;;;3.65;;
75025;SDS011;63591;50.080;8.286;2022-12-10T14:02:06;6.30;;;3.60;;
75025;SDS011;63591;50.080;8.286;2022-12-10T14:07:28;5.75;;;3.20;;
75025;SDS011;63591;50.080;8.286;2022-12-10T14:09:56;6.28;;;3.40;;
75025;SDS011;63591;50.080;8.286;2022-12-10T14:15:03;6.45;;;3.53;;
75025;SDS011;63591;50.080;8.286;2022-12-10T14:17:33;6.97;;;3.33;;
75025;SDS011;63591;50.080;8.286;2022-12-10T14:20:03;6.32;;;3.63;;
75025;SDS011;63591;50.080;8.286;2022-12-10T14:22:33;6.65;;;3.53;;
75025;SDS011;63591;50.080;8.286;2022-12-10T14:25:09;6.40;;;3.28;;
75025;SDS011;63591;50.080;8.286;2022-12-10T14:27:37;6.28;;;3.42;;
75025;SDS011;63591;50.080;8.286;2022-12-10T14:30:04;5.93;;;3.23;;
75025;SDS011;63591;50.080;8.286;2022-12-10T14:32:39;6.15;;;3.20;;
75025;SDS011;63591;50.080;8.286;2022-12-10T14:35:05;6.60;;;3.33;;
75025;SDS011;63591;50.080;8.286;2022-12-10T14:37:36;6.25;;;3.67;;
75025;SDS011;63591;50.080;8.286;2022-12-10T14:40:05;6.55;;;3.60;;
75025;SDS011;63591;50.080;8.286;2022-12-10T14:42:32;6.07;;;3.47;;
75025;SDS011;63591;50.080;8.286;2022-12-10T14:45:02;6.67;;;3.40;;
75025;SDS011;63591;50.080;8.286;2022-12-10T14:47:35;7.15;;;3.75;;
75025;SDS011;63591;50.080;8.286;2022-12-10T14:50:03;6.50;;;3.47;;
75025;SDS011;63591;50.080;8.286;2022-12-10T14:52:32;8.15;;;3.83;;
75025;SDS011;63591;50.080;8.286;2022-12-10T14:55:04;6.30;;;3.50;;
75025;SDS011;63591;50.080;8.286;2022-12-10T14:57:34;6.93;;;3.90;;
75025;SDS011;63591;50.080;8.286;2022-12-10T15:00:18;6.90;;;3.85;;
75025;SDS011;63591;50.080;8.286;2022-12-10T15:02:47;7.03;;;3.95;;
75025;SDS011;63591;50.080;8.286;2022-12-10T15:05:27;6.70;;;4.10;;
75025;SDS011;63591;50.080;8.286;2022-12-10T15:07:56;6.90;;;3.95;;
75025;SDS011;63591;50.080;8.286;2022-12-10T15:10:25;8.20;;;4.30;;
75025;SDS011;63591;50.080;8.286;2022-12-10T15:12:54;7.70;;;4.30;;
75025;SDS011;63591;50.080;8.286;2022-12-10T15:15:39;8.68;;;4.70;;
75025;SDS011;63591;50.080;8.286;2022-12-10T15:18:15;8.30;;;4.60;;
75025;SDS011;63591;50.080;8.286;2022-12-10T15:23:34;10.80;;;6.40;;
75025;SDS011;63591;50.080;8.286;2022-12-10T15:26:02;9.95;;;6.45;;
75025;SDS011;63591;50.080;8.286;2022-12-10T15:28:35;10.48;;;6.35;;
75025;SDS011;63591;50.080;8.286;2022-12-10T15:33:54;10.07;;;6.18;;
75025;SDS011;63591;50.080;8.286;2022-12-10T15:36:28;9.68;;;6.13;;
75025;SDS011;63591;50.080;8.286;2022-12-10T15:39:04;10.52;;;6.88;;
75025;SDS011;63591;50.080;8.286;2022-12-10T15:46:59;9.25;;;5.93;;
75025;SDS011;63591;50.080;8.286;2022-12-10T15:49:28;9.32;;;6.10;;
75025;SDS011;63591;50.080;8.286;2022-12-10T15:51:55;8.98;;;5.70;;
75025;SDS011;63591;50.080;8.286;2022-12-10T15:54:22;12.32;;;6.80;;
75025;SDS011;63591;50.080;8.286;2022-12-10T15:57:13;9.47;;;5.93;;
75025;SDS011;63591;50.080;8.286;2022-12-10T15:59:40;9.30;;;5.65;;
75025;SDS011;63591;50.080;8.286;2022-12-10T16:02:14;10.23;;;6.45;;
75025;SDS011;63591;50.080;8.286;2022-12-10T16:04:51;8.98;;;5.78;;
75025;SDS011;63591;50.080;8.286;2022-12-10T16:07:17;10.47;;;5.43;;
75025;SDS011;63591;50.080;8.286;2022-12-10T16:09:42;8.48;;;5.55;;
75025;SDS011;63591;50.080;8.286;2022-12-10T16:12:11;9.57;;;5.90;;
75025;SDS011;63591;50.080;8.286;2022-12-10T16:14:38;9.80;;;5.87;;
75025;SDS011;63591;50.080;8.286;2022-12-10T16:17:09;8.77;;;5.45;;
75025;SDS011;63591;50.080;8.286;2022-12-10T16:19:34;9.80;;;5.75;;
75025;SDS011;63591;50.080;8.286;2022-12-10T16:22:01;9.30;;;5.63;;
75025;SDS011;63591;50.080;8.286;2022-12-10T16:24:27;9.23;;;5.60;;
75025;SDS011;63591;50.080;8.286;2022-12-10T16:26:52;11.17;;;6.47;;
75025;SDS011;63591;50.080;8.286;2022-12-10T16:29:17;11.33;;;6.47;;
75025;SDS011;63591;50.080;8.286;2022-12-10T16:31:45;10.73;;;6.78;;
75025;SDS011;63591;50.080;8.286;2022-12-10T16:34:10;11.40;;;6.90;;
75025;SDS011;63591;50.080;8.286;2022-12-10T16:36:35;12.23;;;7.00;;
75025;SDS011;63591;50.080;8.286;2022-12-10T16:39:01;11.70;;;6.80;;
75025;SDS011;63591;50.080;8.286;2022-12-10T16:41:27;10.68;;;6.22;;
75025;SDS011;63591;50.080;8.286;2022-12-10T16:43:53;11.10;;;6.50;;
75025;SDS011;63591;50.080;8.286;2022-12-10T16:46:19;10.80;;;6.40;;
75025;SDS011;63591;50.080;8.286;2022-12-10T16:48:44;12.60;;;6.75;;
75025;SDS011;63591;50.080;8.286;2022-12-10T16:54:02;11.98;;;7.40;;
75025;SDS011;63591;50.080;8.286;2022-12-10T16:56:28;11.20;;;7.10;;
75025;SDS011;63591;50.080;8.286;2022-12-10T16:58:54;12.95;;;7.38;;
75025;SDS011;63591;50.080;8.286;2022-12-10T17:01:21;11.20;;;6.97;;
75025;SDS011;63591;50.080;8.286;2022-12-10T17:03:48;13.07;;;6.80;;
75025;SDS011;63591;50.080;8.286;2022-12-10T17:06:15;12.73;;;7.30;;
75025;SDS011;63591;50.080;8.286;2022-12-10T17:08:41;12.05;;;7.30;;